createdAt,value
2023-10-05T00:01:31.379Z,97805.84
2023-10-05T00:03:59.436Z,97805.28
2023-10-05T00:06:26.029Z,97805.31
2023-10-05T00:08:57.308Z,97799.00
2023-10-05T00:11:32.225Z,97795.72
2023-10-05T00:14:07.342Z,97787.84
2023-10-05T00:16:39.784Z,97793.09
2023-10-05T00:19:12.653Z,97795.66
2023-10-05T00:21:43.566Z,97785.25
2023-10-05T00:24:12.267Z,97787.47
2023-10-05T00:26:40.003Z,97779.59
2023-10-05T00:29:24.880Z,97781.44
2023-10-05T00:31:51.649Z,97776.56
2023-10-05T00:34:21.304Z,97769.91
2023-10-05T00:36:51.290Z,97782.50
2023-10-05T00:39:21.146Z,97787.97
2023-10-05T00:42:00.189Z,97776.72
2023-10-05T00:44:27.875Z,97777.41
2023-10-05T00:46:54.578Z,97771.94
2023-10-05T00:49:24.018Z,97778.13
2023-10-05T00:52:14.498Z,97776.34
2023-10-05T00:54:41.857Z,97762.00
2023-10-05T00:57:15.245Z,97769.81
2023-10-05T00:59:43.641Z,97760.22
2023-10-05T01:02:17.384Z,97764.19
2023-10-05T01:04:54.306Z,97771.13
2023-10-05T01:07:25.640Z,97776.91
2023-10-05T01:10:16.298Z,97775.94
2023-10-05T01:12:45.010Z,97768.25
2023-10-05T01:15:17.043Z,97768.44
2023-10-05T01:17:43.598Z,97765.75
2023-10-05T01:20:18.097Z,97766.53
2023-10-05T01:22:45.797Z,97771.03
2023-10-05T01:25:15.064Z,97766.69
2023-10-05T01:27:52.247Z,97761.59
2023-10-05T01:30:19.879Z,97767.78
2023-10-05T01:32:47.607Z,97768.72
2023-10-05T01:35:16.933Z,97761.78
2023-10-05T01:37:46.840Z,97750.56
2023-10-05T01:40:20.482Z,97752.22
2023-10-05T01:42:48.758Z,97758.44
2023-10-05T01:45:22.492Z,97756.63
2023-10-05T01:47:50.159Z,97762.69
2023-10-05T01:50:27.544Z,97748.88
2023-10-05T01:53:16.668Z,97747.25
2023-10-05T01:55:46.601Z,97752.25
2023-10-05T01:58:23.215Z,97749.78
2023-10-05T02:00:50.197Z,97741.72
2023-10-05T02:03:19.463Z,97744.47
2023-10-05T02:05:48.569Z,97740.88
2023-10-05T02:08:21.872Z,97735.97
2023-10-05T02:10:49.559Z,97740.22
2023-10-05T02:13:17.749Z,97734.47
2023-10-05T02:15:48.821Z,97743.13
2023-10-05T02:18:29.667Z,97744.84
2023-10-05T02:21:07.938Z,97750.94
2023-10-05T02:23:40.869Z,97756.13
2023-10-05T02:26:34.678Z,97760.25
2023-10-05T02:29:14.968Z,97763.69
2023-10-05T02:31:57.389Z,97754.28
2023-10-05T02:34:26.012Z,97757.72
2023-10-05T02:36:55.941Z,97759.41
2023-10-05T02:39:23.533Z,97755.84
2023-10-05T02:41:52.143Z,97755.16
2023-10-05T02:44:20.850Z,97755.09
2023-10-05T02:46:48.634Z,97757.72
2023-10-05T02:49:17.037Z,97757.69
2023-10-05T02:51:44.483Z,97755.91
2023-10-05T02:54:11.822Z,97746.53
2023-10-05T02:56:41.361Z,97751.53
2023-10-05T02:59:09.092Z,97748.22
2023-10-05T03:01:38.985Z,97751.84
2023-10-05T03:04:29.604Z,97752.69
2023-10-05T03:06:56.908Z,97751.06
2023-10-05T03:09:23.571Z,97747.56
2023-10-05T03:11:53.196Z,97745.69
2023-10-05T03:14:22.427Z,97746.63
2023-10-05T03:16:49.493Z,97745.56
2023-10-05T03:19:21.785Z,97751.56
2023-10-05T03:21:59.526Z,97744.75
2023-10-05T03:24:26.477Z,97749.94
2023-10-05T03:26:53.438Z,97732.94
2023-10-05T03:29:22.880Z,97735.38
2023-10-05T03:32:16.583Z,97728.59
2023-10-05T03:34:44.023Z,97732.13
2023-10-05T03:37:14.254Z,97721.81
2023-10-05T03:39:55.325Z,97731.28
2023-10-05T03:42:23.184Z,97730.41
2023-10-05T03:45:12.904Z,97732.94
2023-10-05T03:47:39.920Z,97729.38
2023-10-05T03:50:17.911Z,97734.41
2023-10-05T03:52:47.946Z,97740.63
2023-10-05T03:55:19.974Z,97737.19
2023-10-05T03:57:49.554Z,97732.88
2023-10-05T04:00:19.155Z,97726.88
2023-10-05T04:02:47.606Z,97737.16
2023-10-05T04:05:18.492Z,97749.22
2023-10-05T04:07:45.202Z,97745.84
2023-10-05T04:10:16.556Z,97744.06
2023-10-05T04:12:43.420Z,97734.50
2023-10-05T04:15:12.661Z,97735.28
2023-10-05T04:17:40.089Z,97734.47
2023-10-05T04:20:20.656Z,97740.53
2023-10-05T04:22:49.052Z,97748.22
2023-10-05T04:25:17.922Z,97749.91
2023-10-05T04:27:47.858Z,97738.72
2023-10-05T04:30:18.545Z,97737.84
2023-10-05T04:32:45.629Z,97731.91
2023-10-05T04:35:16.998Z,97730.25
2023-10-05T04:37:44.873Z,97733.72
2023-10-05T04:40:11.813Z,97744.03
2023-10-05T04:42:38.330Z,97747.41
2023-10-05T04:45:12.725Z,97755.16
2023-10-05T04:47:39.845Z,97740.53
2023-10-05T04:50:14.314Z,97737.94
2023-10-05T04:52:41.146Z,97740.47
2023-10-05T04:55:25.101Z,97746.41
2023-10-05T04:57:53.552Z,97738.53
2023-10-05T05:00:38.979Z,97747.25
2023-10-05T05:03:24.143Z,97738.63
2023-10-05T05:06:06.085Z,97733.41
2023-10-05T05:08:36.511Z,97728.34
2023-10-05T05:11:09.956Z,97727.47
2023-10-05T05:13:37.398Z,97729.34
2023-10-05T05:16:06.228Z,97732.69
2023-10-05T05:18:33.524Z,97730.16
2023-10-05T05:21:00.228Z,97735.19
2023-10-05T05:23:26.801Z,97737.75
2023-10-05T05:25:53.519Z,97737.09
2023-10-05T05:28:20.231Z,97745.63
2023-10-05T05:30:48.257Z,97741.09
2023-10-05T05:33:14.985Z,97743.69
2023-10-05T05:35:41.589Z,97757.63
2023-10-05T05:38:10.868Z,97752.38
2023-10-05T05:40:38.383Z,97754.19
2023-10-05T05:43:09.887Z,97755.00
2023-10-05T05:45:36.547Z,97757.56
2023-10-05T05:48:10.156Z,97767.03
2023-10-05T05:50:40.363Z,97771.34
2023-10-05T05:53:09.528Z,97779.94
2023-10-05T05:55:36.208Z,97777.44
2023-10-05T05:58:02.770Z,97767.09
2023-10-05T06:00:29.840Z,97774.66
2023-10-05T06:02:58.654Z,97770.47
2023-10-05T06:05:25.712Z,97771.44
2023-10-05T06:07:52.480Z,97779.09
2023-10-05T06:10:19.185Z,97785.16
2023-10-05T06:12:51.741Z,97779.84
2023-10-05T06:15:18.248Z,97771.34
2023-10-05T06:17:45.062Z,97773.91
2023-10-05T06:20:15.821Z,97765.38
2023-10-05T06:22:46.583Z,97777.34
2023-10-05T06:25:16.386Z,97785.94
2023-10-05T06:27:46.568Z,97781.72
2023-10-05T06:30:13.400Z,97777.28
2023-10-05T06:32:41.667Z,97781.56
2023-10-05T06:35:12.534Z,97784.13
2023-10-05T06:37:40.187Z,97787.53
2023-10-05T06:40:14.807Z,97789.09
2023-10-05T06:42:43.073Z,97795.94
2023-10-05T06:45:12.248Z,97791.69
2023-10-05T06:47:39.259Z,97796.63
2023-10-05T06:50:09.328Z,97796.69
2023-10-05T06:52:40.877Z,97799.19
2023-10-05T06:55:08.682Z,97798.47
2023-10-05T06:57:39.139Z,97792.84
2023-10-05T07:00:13.129Z,97802.75
2023-10-05T07:02:40.958Z,97800.25
2023-10-05T07:05:08.908Z,97799.91
2023-10-05T07:07:36.311Z,97799.75
2023-10-05T07:10:07.330Z,97793.41
2023-10-05T07:12:40.016Z,97796.19
2023-10-05T07:15:07.370Z,97790.94
2023-10-05T07:17:33.953Z,97790.75
2023-10-05T07:20:00.607Z,97798.31
2023-10-05T07:22:27.216Z,97791.72
2023-10-05T07:24:53.816Z,97788.25
2023-10-05T07:27:20.372Z,97799.34
2023-10-05T07:29:48.664Z,97793.19
2023-10-05T07:32:15.408Z,97793.31
2023-10-05T07:34:42.368Z,97796.22
2023-10-05T07:37:12.370Z,97802.38
2023-10-05T07:39:42.362Z,97801.03
2023-10-05T07:42:09.873Z,97789.97
2023-10-05T07:44:38.610Z,97787.69
2023-10-05T07:47:06.349Z,97788.88
2023-10-05T07:49:35.903Z,97792.28
2023-10-05T07:52:04.352Z,97780.06
2023-10-05T07:54:35.216Z,97780.28
2023-10-05T07:57:02.335Z,97782.88
2023-10-05T07:59:29.625Z,97780.97
2023-10-05T08:01:57.962Z,97781.94
2023-10-05T08:04:25.170Z,97788.06
2023-10-05T08:06:51.962Z,97784.34
2023-10-05T08:09:22.066Z,97785.59
2023-10-05T08:11:51.297Z,97787.16
2023-10-05T08:14:18.863Z,97792.78
2023-10-05T08:16:46.796Z,97795.16
2023-10-05T08:19:13.860Z,97790.09
2023-10-05T08:21:42.186Z,97796.44
2023-10-05T08:24:09.361Z,97801.97
2023-10-05T08:26:36.261Z,97801.81
2023-10-05T08:29:02.900Z,97786.59
2023-10-05T08:31:29.629Z,97777.88
2023-10-05T08:33:56.283Z,97778.34
2023-10-05T08:36:23.113Z,97787.09
2023-10-05T08:38:50.879Z,97788.69
2023-10-05T08:41:32.981Z,97788.13
2023-10-05T08:44:00.842Z,97794.22
2023-10-05T08:46:29.122Z,97789.19
2023-10-05T08:48:58.360Z,97804.31
2023-10-05T08:51:26.010Z,97805.63
2023-10-05T08:54:01.090Z,97807.34
2023-10-05T08:56:27.662Z,97799.22
2023-10-05T08:58:56.969Z,97799.69
2023-10-05T09:01:32.229Z,97795.50
2023-10-05T09:04:03.275Z,97799.09
2023-10-05T09:06:31.663Z,97811.03
2023-10-05T09:09:07.641Z,97816.94
2023-10-05T09:11:35.018Z,97809.03
2023-10-05T09:14:28.828Z,97814.91
2023-10-05T09:17:08.721Z,97810.31
2023-10-05T09:19:36.420Z,97809.72
2023-10-05T09:22:03.130Z,97802.53
2023-10-05T09:24:33.617Z,97791.09
2023-10-05T09:27:11.044Z,97789.81
2023-10-05T09:29:37.682Z,97797.38
2023-10-05T09:32:10.025Z,97788.75
2023-10-05T09:34:42.757Z,97786.31
2023-10-05T09:37:11.806Z,97789.97
2023-10-05T09:39:44.393Z,97785.09
2023-10-05T09:42:28.662Z,97782.63
2023-10-05T09:44:58.442Z,97787.91
2023-10-05T09:47:26.652Z,97783.16
2023-10-05T09:49:59.727Z,97776.53
2023-10-05T09:52:32.827Z,97778.44
2023-10-05T09:55:00.496Z,97767.47
2023-10-05T09:57:27.666Z,97774.47
2023-10-05T10:00:01.231Z,97781.19
2023-10-05T10:02:33.340Z,97774.44
2023-10-05T10:05:04.806Z,97767.53
2023-10-05T10:07:33.775Z,97755.41
2023-10-05T10:10:01.576Z,97760.94
2023-10-05T10:12:40.201Z,97749.81
2023-10-05T10:15:25.957Z,97752.91
2023-10-05T10:18:04.683Z,97752.66
2023-10-05T10:20:36.632Z,97755.50
2023-10-05T10:23:20.272Z,97742.81
2023-10-05T10:25:47.639Z,97751.44
2023-10-05T10:28:52.197Z,97756.13
2023-10-05T10:31:33.364Z,97749.22
2023-10-05T10:34:21.455Z,97737.16
2023-10-05T10:36:57.697Z,97734.88
2023-10-05T10:39:30.372Z,97736.06
2023-10-05T10:42:19.906Z,97725.38
2023-10-05T10:44:52.507Z,97730.91
2023-10-05T10:47:20.890Z,97735.06
2023-10-05T10:50:40.090Z,97722.34
2023-10-05T10:53:17.745Z,97713.34
2023-10-05T10:55:52.316Z,97711.72
2023-10-05T10:58:25.203Z,97715.59
2023-10-05T11:01:00.211Z,97708.63
2023-10-05T11:03:28.269Z,97705.28
2023-10-05T11:05:55.859Z,97704.66
2023-10-05T11:08:23.007Z,97707.03
2023-10-05T11:11:10.902Z,97706.28
2023-10-05T11:13:44.673Z,97710.03
2023-10-05T11:16:12.548Z,97718.56
2023-10-05T11:18:59.820Z,97708.72
2023-10-05T11:21:35.035Z,97704.06
2023-10-05T11:24:08.029Z,97698.81
2023-10-05T11:26:48.894Z,97696.34
2023-10-05T11:29:22.580Z,97686.53
2023-10-05T11:32:01.784Z,97700.59
2023-10-05T11:35:17.024Z,97688.41
2023-10-05T11:37:32.174Z,97682.13
2023-10-05T11:40:01.742Z,97687.06
2023-10-05T11:42:36.412Z,97691.38
2023-10-05T11:45:13.808Z,97676.56
2023-10-05T11:47:46.781Z,97683.91
2023-10-05T11:50:25.340Z,97688.63
2023-10-05T11:52:55.813Z,97687.50
2023-10-05T11:55:22.498Z,97699.22
2023-10-05T11:57:49.677Z,97688.03
2023-10-05T12:00:19.258Z,97681.66
2023-10-05T12:02:47.136Z,97682.34
2023-10-05T12:05:14.169Z,97694.38
2023-10-05T12:07:46.637Z,97697.59
2023-10-05T12:10:14.620Z,97687.56
2023-10-05T12:12:50.006Z,97684.38
2023-10-05T12:15:18.540Z,97680.50
2023-10-05T12:17:47.053Z,97686.97
2023-10-05T12:20:17.147Z,97682.34
2023-10-05T12:22:44.752Z,97679.94
2023-10-05T12:25:16.069Z,97684.19
2023-10-05T12:27:43.186Z,97692.81
2023-10-05T12:30:13.173Z,97692.09
2023-10-05T12:32:41.339Z,97685.97
2023-10-05T12:35:14.314Z,97685.72
2023-10-05T12:37:42.908Z,97681.13
2023-10-05T12:40:19.504Z,97676.38
2023-10-05T12:42:58.878Z,97678.16
2023-10-05T12:45:32.802Z,97680.63
2023-10-05T12:47:59.738Z,97669.56
2023-10-05T12:50:28.775Z,97669.41
2023-10-05T12:52:57.241Z,97682.81
2023-10-05T12:55:24.619Z,97681.66
2023-10-05T12:57:52.003Z,97678.16
2023-10-05T13:00:23.460Z,97668.50
2023-10-05T13:02:53.286Z,97678.50
2023-10-05T13:05:32.418Z,97686.22
2023-10-05T13:08:04.096Z,97680.09
2023-10-05T13:10:34.472Z,97673.56
2023-10-05T13:13:10.891Z,97682.25
2023-10-05T13:15:38.732Z,97680.19
2023-10-05T13:18:21.291Z,97675.94
2023-10-05T13:20:50.347Z,97681.13
2023-10-05T13:23:20.450Z,97673.53
2023-10-05T13:25:50.610Z,97682.34
2023-10-05T13:28:21.857Z,97680.09
2023-10-05T13:30:48.731Z,97675.44
2023-10-05T13:33:22.233Z,97681.22
2023-10-05T13:35:50.122Z,97675.28
2023-10-05T13:38:18.810Z,97686.56
2023-10-05T13:41:20.558Z,97685.22
2023-10-05T13:43:50.443Z,97674.19
2023-10-05T13:46:18.195Z,97673.94
2023-10-05T13:48:45.551Z,97671.91
2023-10-05T13:51:13.342Z,97670.97
2023-10-05T13:53:42.454Z,97669.81
2023-10-05T13:56:12.441Z,97661.66
2023-10-05T13:58:42.518Z,97673.56
2023-10-05T14:01:17.158Z,97673.31
2023-10-05T14:03:47.159Z,97677.97
2023-10-05T14:06:14.671Z,97673.66
2023-10-05T14:08:45.258Z,97678.34
2023-10-05T14:11:12.047Z,97674.50
2023-10-05T14:13:38.690Z,97672.56
2023-10-05T14:16:05.659Z,97673.66
2023-10-05T14:18:34.701Z,97666.44
2023-10-05T14:21:04.192Z,97674.50
2023-10-05T14:23:30.843Z,97677.47
2023-10-05T14:25:57.656Z,97672.69
2023-10-05T14:28:26.951Z,97674.38
2023-10-05T14:30:54.074Z,97672.66
2023-10-05T14:33:24.241Z,97668.44
2023-10-05T14:35:58.028Z,97669.09
2023-10-05T14:38:26.369Z,97679.38
2023-10-05T14:40:57.825Z,97668.25
2023-10-05T14:43:33.659Z,97680.31
2023-10-05T14:46:01.421Z,97680.63
2023-10-05T14:48:31.783Z,97680.38
2023-10-05T14:51:02.823Z,97685.44
2023-10-05T14:53:30.931Z,97687.59
2023-10-05T14:55:58.340Z,97694.53
2023-10-05T14:58:26.661Z,97697.47
2023-10-05T15:00:57.701Z,97699.03
2023-10-05T15:03:26.340Z,97691.88
2023-10-05T15:05:53.694Z,97698.28
2023-10-05T15:08:20.373Z,97696.53
2023-10-05T15:10:46.969Z,97689.97
2023-10-05T15:13:15.594Z,97695.16
2023-10-05T15:15:43.191Z,97694.94
2023-10-05T15:18:10.458Z,97700.47
2023-10-05T15:20:39.207Z,97703.53
2023-10-05T15:23:05.984Z,97698.19
2023-10-05T15:25:34.356Z,97698.88
2023-10-05T15:28:01.183Z,97697.16
2023-10-05T15:30:27.723Z,97705.09
2023-10-05T15:32:54.291Z,97699.06
2023-10-05T15:35:21.265Z,97703.50
2023-10-05T15:37:49.597Z,97705.59
2023-10-05T15:40:20.173Z,97703.56
2023-10-05T15:42:55.078Z,97695.34
2023-10-05T15:45:24.852Z,97698.91
2023-10-05T15:47:55.604Z,97702.28
2023-10-05T15:50:23.805Z,97700.63
2023-10-05T15:52:57.577Z,97701.63
2023-10-05T15:55:25.142Z,97706.56
2023-10-05T15:57:52.563Z,97713.44
2023-10-05T16:00:29.019Z,97705.31
2023-10-05T16:03:00.662Z,97713.94
2023-10-05T16:05:29.070Z,97711.56
2023-10-05T16:08:00.693Z,97720.84
2023-10-05T16:10:28.823Z,97718.09
2023-10-05T16:12:57.858Z,97710.44
2023-10-05T16:15:24.923Z,97719.69
2023-10-05T16:17:52.620Z,97724.81
2023-10-05T16:20:27.019Z,97727.94
2023-10-05T16:22:59.164Z,97725.88
2023-10-05T16:25:28.067Z,97741.50
2023-10-05T16:27:55.157Z,97738.38
2023-10-05T16:30:23.016Z,97721.72
2023-10-05T16:32:51.986Z,97720.13
2023-10-05T16:35:19.426Z,97713.00
2023-10-05T16:37:46.466Z,97725.28
2023-10-05T16:40:14.489Z,97724.88
2023-10-05T16:42:42.976Z,97742.06
2023-10-05T16:45:12.380Z,97737.75
2023-10-05T16:47:42.243Z,97737.38
2023-10-05T16:50:13.777Z,97743.19
2023-10-05T16:52:40.993Z,97748.31
2023-10-05T16:55:08.091Z,97759.09
2023-10-05T16:57:34.648Z,97749.41
2023-10-05T17:00:07.810Z,97756.59
2023-10-05T17:02:35.192Z,97750.56
2023-10-05T17:05:11.860Z,97744.88
2023-10-05T17:07:38.444Z,97760.22
2023-10-05T17:10:06.573Z,97760.03
2023-10-05T17:12:33.028Z,97756.19
2023-10-05T17:14:59.555Z,97757.28
2023-10-05T17:17:26.360Z,97766.19
2023-10-05T17:19:52.924Z,97770.88
2023-10-05T17:22:19.554Z,97766.63
2023-10-05T17:24:53.478Z,97764.81
2023-10-05T17:27:26.916Z,97766.28
2023-10-05T17:29:54.075Z,97770.19
2023-10-05T17:32:20.584Z,97762.78
2023-10-05T17:34:49.895Z,97777.22
2023-10-05T17:37:19.283Z,97767.00
2023-10-05T17:39:46.377Z,97774.22
2023-10-05T17:42:13.146Z,97771.19
2023-10-05T17:44:41.014Z,97769.03
2023-10-05T17:47:09.373Z,97756.84
2023-10-05T17:49:42.301Z,97764.88
2023-10-05T17:52:08.961Z,97757.44
2023-10-05T17:54:35.718Z,97764.69
2023-10-05T17:57:03.454Z,97758.88
2023-10-05T17:59:30.141Z,97750.03
2023-10-05T18:01:57.165Z,97749.94
2023-10-05T18:04:25.795Z,97744.28
2023-10-05T18:06:52.364Z,97736.50
2023-10-05T18:09:18.849Z,97739.03
2023-10-05T18:11:45.641Z,97739.31
2023-10-05T18:14:15.429Z,97728.19
2023-10-05T18:16:42.950Z,97708.44
2023-10-05T18:19:10.583Z,97679.06
2023-10-05T18:21:40.626Z,97663.88
2023-10-05T18:24:09.054Z,97662.38
2023-10-05T18:26:35.656Z,97666.88
2023-10-05T18:29:02.140Z,97662.28
2023-10-05T18:31:31.229Z,97652.47
2023-10-05T18:33:58.320Z,97644.81
2023-10-05T18:36:25.685Z,97644.41
2023-10-05T18:38:52.743Z,97646.66
2023-10-05T18:41:21.207Z,97643.72
2023-10-05T18:43:48.918Z,97657.78
2023-10-05T18:46:21.967Z,97679.22
2023-10-05T18:48:48.551Z,97690.66
2023-10-05T18:51:15.076Z,97695.28
2023-10-05T18:53:41.684Z,97692.56
2023-10-05T18:56:08.692Z,97702.13
2023-10-05T18:58:36.666Z,97706.69
2023-10-05T19:01:04.157Z,97711.38
2023-10-05T19:03:30.888Z,97727.44
2023-10-05T19:05:58.010Z,97728.28
2023-10-05T19:08:24.543Z,97736.69
2023-10-05T19:10:51.187Z,97737.84
2023-10-05T19:13:17.797Z,97752.22
2023-10-05T19:15:44.463Z,97754.63
2023-10-05T19:18:11.076Z,97757.06
2023-10-05T19:20:37.883Z,97761.47
2023-10-05T19:23:10.215Z,97760.50
2023-10-05T19:25:40.399Z,97766.41
2023-10-05T19:28:12.992Z,97767.66
2023-10-05T19:30:40.206Z,97772.78
2023-10-05T19:33:07.232Z,97771.28
2023-10-05T19:35:34.000Z,97786.75
2023-10-05T19:38:00.931Z,97791.88
2023-10-05T19:40:27.821Z,97787.19
2023-10-05T19:42:56.001Z,97790.53
2023-10-05T19:45:22.941Z,97796.31
2023-10-05T19:47:49.830Z,97799.44
2023-10-05T19:50:16.459Z,97804.63
2023-10-05T19:52:42.986Z,97813.69
2023-10-05T19:55:12.164Z,97800.22
2023-10-05T19:57:38.866Z,97803.91
2023-10-05T20:00:11.999Z,97801.53
2023-10-05T20:02:40.453Z,97806.78
2023-10-05T20:05:07.824Z,97809.09
2023-10-05T20:07:34.553Z,97806.44
2023-10-05T20:10:01.374Z,97802.47
2023-10-05T20:12:28.979Z,97802.47
2023-10-05T20:14:55.739Z,97804.81
2023-10-05T20:17:22.394Z,97800.72
2023-10-05T20:19:49.111Z,97805.44
2023-10-05T20:22:15.661Z,97808.72
2023-10-05T20:24:42.865Z,97803.16
2023-10-05T20:27:16.264Z,97805.44
2023-10-05T20:29:44.055Z,97813.44
2023-10-05T20:32:11.493Z,97809.50
2023-10-05T20:34:38.349Z,97816.13
2023-10-05T20:37:05.002Z,97820.75
2023-10-05T20:39:31.547Z,97816.22
2023-10-05T20:41:58.627Z,97818.88
2023-10-05T20:44:28.386Z,97819.69
2023-10-05T20:46:57.308Z,97818.84
2023-10-05T20:49:24.765Z,97820.81
2023-10-05T20:51:51.667Z,97825.38
2023-10-05T20:54:18.316Z,97839.34
2023-10-05T20:56:45.748Z,97836.63
2023-10-05T20:59:13.457Z,97835.19
2023-10-05T21:01:40.133Z,97830.16
2023-10-05T21:04:06.845Z,97835.41
2023-10-05T21:06:33.648Z,97830.41
2023-10-05T21:09:00.207Z,97834.03
2023-10-05T21:11:26.769Z,97836.47
2023-10-05T21:13:53.960Z,97836.78
2023-10-05T21:16:20.865Z,97833.06
2023-10-05T21:18:47.466Z,97829.72
2023-10-05T21:21:14.922Z,97831.06
2023-10-05T21:23:41.454Z,97839.06
2023-10-05T21:26:07.934Z,97841.41
2023-10-05T21:28:36.307Z,97839.34
2023-10-05T21:31:05.985Z,97837.03
2023-10-05T21:33:32.681Z,97828.69
2023-10-05T21:35:59.187Z,97833.19
2023-10-05T21:38:25.849Z,97835.03
2023-10-05T21:40:52.572Z,97837.09
2023-10-05T21:43:19.103Z,97832.91
2023-10-05T21:45:45.721Z,97827.66
2023-10-05T21:48:12.278Z,97826.66
2023-10-05T21:50:39.075Z,97823.34
2023-10-05T21:53:06.330Z,97823.59
2023-10-05T21:55:33.044Z,97830.69
2023-10-05T21:57:59.671Z,97819.06
2023-10-05T22:00:41.587Z,97825.66
2023-10-05T22:03:10.177Z,97830.13
2023-10-05T22:05:37.778Z,97831.69
2023-10-05T22:08:08.342Z,97823.63
2023-10-05T22:10:36.280Z,97821.19
2023-10-05T22:13:04.218Z,97822.63
2023-10-05T22:15:33.805Z,97825.81
2023-10-05T22:18:01.301Z,97826.44
2023-10-05T22:20:29.425Z,97830.09
2023-10-05T22:22:56.214Z,97832.66
2023-10-05T22:25:23.763Z,97834.00
2023-10-05T22:27:51.099Z,97828.66
2023-10-05T22:30:18.314Z,97836.50
2023-10-05T22:32:47.713Z,97840.88
2023-10-05T22:35:14.254Z,97850.75
2023-10-05T22:37:40.853Z,97848.63
2023-10-05T22:40:07.847Z,97854.31
2023-10-05T22:42:35.668Z,97855.75
2023-10-05T22:45:02.373Z,97863.75
2023-10-05T22:47:29.011Z,97862.13
2023-10-05T22:49:55.820Z,97857.63
2023-10-05T22:52:22.981Z,97858.38
2023-10-05T22:54:49.644Z,97845.19
2023-10-05T22:57:16.133Z,97854.09
2023-10-05T22:59:44.194Z,97849.31
2023-10-05T23:02:15.400Z,97843.63
2023-10-05T23:04:42.387Z,97844.94
2023-10-05T23:07:09.322Z,97846.59
2023-10-05T23:09:39.832Z,97859.41
2023-10-05T23:12:11.706Z,97856.00
2023-10-05T23:14:49.500Z,97861.25
2023-10-05T23:17:19.287Z,97862.81
2023-10-05T23:19:45.943Z,97864.69
2023-10-05T23:22:13.148Z,97867.44
2023-10-05T23:24:39.859Z,97867.44
2023-10-05T23:27:06.462Z,97876.41
2023-10-05T23:29:34.245Z,97886.63
2023-10-05T23:32:01.283Z,97892.28
2023-10-05T23:34:29.545Z,97878.31
2023-10-05T23:36:59.335Z,97887.78
2023-10-05T23:39:26.270Z,97890.34
2023-10-05T23:41:55.669Z,97891.75
2023-10-05T23:44:24.023Z,97904.22
2023-10-05T23:47:15.134Z,97902.47
2023-10-05T23:49:44.841Z,97906.91
2023-10-05T23:52:11.906Z,97912.91
2023-10-05T23:54:41.339Z,97908.31
2023-10-05T23:57:12.941Z,97912.06
2023-10-05T23:59:39.561Z,97905.97
